Time;durP1;ratioP1;P1;durP2;ratioP2;P2;SDS_P1;SDS_P2;PMS_P1;PMS_P2;Temp;Humidity;BMP_temperature;BMP_pressure;BME280_temperature;BME280_humidity;BME280_pressure;Samples;Min_cycle;Max_cycle;Signal;HPM_P1;HPM_P2
2022/12/15 00:38:43;;;;;;;27.30;19.88;;;;;;;;;;5054437;28;20439;-65
2022/12/15 00:41:10;;;;;;;25.75;19.30;;;;;;;;;;5053499;28;20075;-65
2022/12/15 00:43:37;;;;;;;29.25;19.83;;;;;;;;;;5054352;28;20124;-65
2022/12/15 00:48:48;;;;;;;27.48;19.75;;;;;;;;;;5054553;28;20469;-65
2022/12/15 00:51:15;;;;;;;25.67;19.00;;;;;;;;;;5054140;28;20488;-64
2022/12/15 01:21:19;;;;;;;43.30;28.40;;;;;;;;;;5053801;28;20092;-65
2022/12/15 01:23:50;;;;;;;34.80;24.00;;;;;;;;;;5053537;28;20515;-64
2022/12/15 01:26:16;;;;;;;37.95;24.73;;;;;;;;;;5053484;28;20053;-64
2022/12/15 01:28:43;;;;;;;33.60;23.15;;;;;;;;;;5053473;28;20052;-64
2022/12/15 01:31:10;;;;;;;39.97;27.42;;;;;;;;;;5053818;28;20049;-65
2022/12/15 01:33:37;;;;;;;33.20;23.13;;;;;;;;;;5053673;28;20056;-65
2022/12/15 01:36:04;;;;;;;33.28;21.90;;;;;;;;;;5053595;28;20427;-64
2022/12/15 01:38:30;;;;;;;32.63;22.40;;;;;;;;;;5053268;28;20496;-64
2022/12/15 01:40:59;;;;;;;31.52;21.33;;;;;;;;;;5053139;28;20055;-64
2022/12/15 01:43:27;;;;;;;30.50;20.23;;;;;;;;;;5053364;28;20136;-64
2022/12/15 01:46:01;;;;;;;38.15;23.70;;;;;;;;;;5053305;28;20143;-65
2022/12/15 01:48:29;;;;;;;32.70;21.40;;;;;;;;;;5053119;28;20143;-64
2022/12/15 01:51:04;;;;;;;29.92;18.40;;;;;;;;;;5052910;28;20510;-64
2022/12/15 01:53:33;;;;;;;28.05;18.70;;;;;;;;;;5053216;28;20131;-65
2022/12/15 01:56:00;;;;;;;29.95;19.33;;;;;;;;;;5052890;28;20144;-64
2022/12/15 01:58:27;;;;;;;49.40;28.67;;;;;;;;;;5052967;28;20457;-64
2022/12/15 02:00:53;;;;;;;36.05;23.85;;;;;;;;;;5053100;28;20475;-64
2022/12/15 02:03:20;;;;;;;26.42;19.92;;;;;;;;;;5052873;28;20057;-64
2022/12/15 02:05:46;;;;;;;27.55;19.10;;;;;;;;;;5053056;28;20049;-64
2022/12/15 02:08:13;;;;;;;24.83;17.05;;;;;;;;;;5052718;28;20609;-65
2022/12/15 02:10:55;;;;;;;23.02;17.38;;;;;;;;;;5052892;28;20085;-64
2022/12/15 02:13:21;;;;;;;25.15;17.85;;;;;;;;;;5052597;28;20044;-64
2022/12/15 02:15:55;;;;;;;25.80;18.88;;;;;;;;;;5052551;28;20408;-64
2022/12/15 02:18:29;;;;;;;26.67;18.50;;;;;;;;;;5052727;28;20136;-64
2022/12/15 02:21:08;;;;;;;26.80;18.95;;;;;;;;;;5052519;28;20127;-64
2022/12/15 02:23:44;;;;;;;22.17;16.15;;;;;;;;;;5051454;28;20080;-65
2022/12/15 02:26:31;;;;;;;23.17;16.98;;;;;;;;;;5052384;28;20477;-64
2022/12/15 02:29:17;;;;;;;22.92;16.48;;;;;;;;;;5052336;28;20107;-64
2022/12/15 02:31:53;;;;;;;23.02;16.35;;;;;;;;;;5052345;28;20083;-64
2022/12/15 02:34:25;;;;;;;24.08;16.02;;;;;;;;;;5052265;28;20086;-64
2022/12/15 02:36:58;;;;;;;25.90;16.88;;;;;;;;;;5052501;28;20103;-64
2022/12/15 02:39:24;;;;;;;22.30;15.35;;;;;;;;;;5052400;28;20079;-64
2022/12/15 02:41:51;;;;;;;21.98;16.67;;;;;;;;;;5052078;28;20049;-64
2022/12/15 02:44:24;;;;;;;25.23;16.53;;;;;;;;;;5052039;28;20053;-64
2022/12/15 02:47:04;;;;;;;21.23;16.25;;;;;;;;;;5052310;28;20364;-65
2022/12/15 02:49:49;;;;;;;22.00;16.08;;;;;;;;;;5052139;28;20127;-64
2022/12/15 02:52:21;;;;;;;21.80;15.30;;;;;;;;;;5052366;28;20045;-64
2022/12/15 02:55:06;;;;;;;23.33;16.15;;;;;;;;;;5051764;28;20476;-64
2022/12/15 02:57:35;;;;;;;21.23;15.60;;;;;;;;;;5052014;28;20132;-64
2022/12/15 03:00:07;;;;;;;20.75;14.80;;;;;;;;;;5051910;28;20471;-64
2022/12/15 03:02:33;;;;;;;21.80;15.25;;;;;;;;;;5051889;28;20131;-64
2022/12/15 03:05:00;;;;;;;20.15;15.27;;;;;;;;;;5051320;28;20080;-64
2022/12/15 03:07:27;;;;;;;21.58;15.35;;;;;;;;;;5051764;28;20559;-64
2022/12/15 03:09:57;;;;;;;18.80;15.13;;;;;;;;;;5051779;28;20071;-64
2022/12/15 03:12:23;;;;;;;20.00;15.00;;;;;;;;;;5051710;28;20132;-64
2022/12/15 03:14:50;;;;;;;23.70;15.18;;;;;;;;;;5051763;28;20135;-64
2022/12/15 03:17:16;;;;;;;25.10;15.30;;;;;;;;;;5051513;28;20135;-64
2022/12/15 03:19:43;;;;;;;23.23;15.98;;;;;;;;;;5051830;28;20060;-64
2022/12/15 03:22:09;;;;;;;19.73;14.38;;;;;;;;;;5051543;28;20572;-64
2022/12/15 03:24:36;;;;;;;22.02;15.88;;;;;;;;;;5051565;28;20148;-64
2022/12/15 03:27:03;;;;;;;24.08;14.95;;;;;;;;;;5051239;28;20060;-64
2022/12/15 03:29:29;;;;;;;18.52;14.55;;;;;;;;;;5051447;28;20511;-64
2022/12/15 03:31:56;;;;;;;20.23;14.90;;;;;;;;;;5051768;28;20069;-64
2022/12/15 03:34:22;;;;;;;20.65;14.73;;;;;;;;;;5051635;28;20060;-64
2022/12/15 03:36:48;;;;;;;19.98;14.85;;;;;;;;;;5051472;28;20088;-64
2022/12/15 03:39:15;;;;;;;19.58;15.23;;;;;;;;;;5051318;28;20468;-64
2022/12/15 03:41:41;;;;;;;19.50;14.85;;;;;;;;;;5051358;28;20041;-64
2022/12/15 03:44:08;;;;;;;20.90;14.85;;;;;;;;;;5051428;28;20049;-64
2022/12/15 03:46:34;;;;;;;16.25;14.48;;;;;;;;;;5051434;28;20055;-64
2022/12/15 03:49:00;;;;;;;20.05;14.38;;;;;;;;;;5051234;28;20140;-64
2022/12/15 03:51:27;;;;;;;17.35;14.07;;;;;;;;;;5051144;28;20099;-65
2022/12/15 03:53:53;;;;;;;21.58;15.00;;;;;;;;;;5051397;28;20124;-64
2022/12/15 03:56:20;;;;;;;20.83;14.25;;;;;;;;;;5051520;28;20047;-64
2022/12/15 03:58:46;;;;;;;18.95;13.82;;;;;;;;;;5051162;28;20047;-64
2022/12/15 04:01:26;;;;;;;22.30;14.25;;;;;;;;;;5051474;28;20067;-64
2022/12/15 04:03:53;;;;;;;22.25;14.13;;;;;;;;;;5051318;28;20053;-64
2022/12/15 04:06:26;;;;;;;20.08;14.07;;;;;;;;;;5051192;28;20127;-64
2022/12/15 04:08:52;;;;;;;20.48;15.05;;;;;;;;;;5051363;28;20144;-64
2022/12/15 04:11:19;;;;;;;19.95;14.13;;;;;;;;;;5050590;28;20135;-64
2022/12/15 04:13:45;;;;;;;20.35;14.05;;;;;;;;;;5050436;28;20535;-64
2022/12/15 04:16:12;;;;;;;22.73;14.65;;;;;;;;;;5051430;28;20473;-64
2022/12/15 04:18:45;;;;;;;17.30;13.65;;;;;;;;;;5054886;28;20127;-64
2022/12/15 04:21:11;;;;;;;16.52;13.75;;;;;;;;;;5054651;28;20088;-64
2022/12/15 04:23:38;;;;;;;17.80;14.02;;;;;;;;;;5054969;28;20132;-64
2022/12/15 05:32:22;;;;;;;18.23;12.90;;;;;;;;;;5053641;28;20091;-64
2022/12/15 05:34:49;;;;;;;19.25;13.80;;;;;;;;;;5053335;28;20492;-64
2022/12/15 05:37:15;;;;;;;17.52;13.60;;;;;;;;;;5053582;28;20049;-63
2022/12/15 05:39:41;;;;;;;19.58;13.95;;;;;;;;;;5053578;28;20041;-63
2022/12/15 05:42:08;;;;;;;19.73;14.10;;;;;;;;;;5053202;28;20084;-63
2022/12/15 05:44:35;;;;;;;18.90;14.05;;;;;;;;;;5053244;28;20538;-64
2022/12/15 05:47:03;;;;;;;15.83;12.53;;;;;;;;;;5053232;28;20128;-63
2022/12/15 05:49:30;;;;;;;17.88;13.18;;;;;;;;;;5053255;28;20045;-63
2022/12/15 05:51:56;;;;;;;17.70;13.00;;;;;;;;;;5053169;28;20045;-63
2022/12/15 05:54:22;;;;;;;20.00;13.30;;;;;;;;;;5053196;28;20049;-63
2022/12/15 05:56:49;;;;;;;19.55;12.95;;;;;;;;;;5052985;28;20481;-63
2022/12/15 05:59:16;;;;;;;16.05;13.18;;;;;;;;;;5053165;28;20045;-63
2022/12/15 06:01:42;;;;;;;17.50;13.43;;;;;;;;;;5053156;28;20075;-63
2022/12/15 06:04:10;;;;;;;19.98;13.13;;;;;;;;;;5052721;28;20048;-63
2022/12/15 06:06:37;;;;;;;17.02;12.38;;;;;;;;;;5053087;28;20065;-63
2022/12/15 06:09:04;;;;;;;13.70;11.97;;;;;;;;;;5052715;28;20080;-63
2022/12/15 06:11:31;;;;;;;15.90;12.75;;;;;;;;;;5052791;28;20297;-63
2022/12/15 06:13:57;;;;;;;16.50;12.93;;;;;;;;;;5052843;28;20127;-63
2022/12/15 06:16:26;;;;;;;15.57;12.95;;;;;;;;;;5052886;28;20053;-63
2022/12/15 06:18:54;;;;;;;19.27;13.05;;;;;;;;;;5052764;28;20044;-64
2022/12/15 06:21:24;;;;;;;19.63;13.48;;;;;;;;;;5052426;28;20521;-63
2022/12/15 06:23:51;;;;;;;17.27;12.30;;;;;;;;;;5052697;28;20059;-63
2022/12/15 06:26:21;;;;;;;16.73;13.30;;;;;;;;;;5052402;28;20060;-63
2022/12/15 06:28:48;;;;;;;16.92;13.05;;;;;;;;;;5050845;28;20127;-63
2022/12/15 06:31:16;;;;;;;19.48;13.57;;;;;;;;;;5036418;28;20132;-63
2022/12/15 06:33:42;;;;;;;;;;;;;;;;;;5052691;28;20045;-63
2022/12/15 06:36:10;;;;;;;14.80;12.88;;;;;;;;;;5052175;28;20292;-63
2022/12/15 06:38:37;;;;;;;17.05;13.82;;;;;;;;;;5051802;28;20053;-63
2022/12/15 06:41:05;;;;;;;17.73;13.60;;;;;;;;;;5052079;28;20481;-63
2022/12/15 06:43:32;;;;;;;17.08;12.73;;;;;;;;;;5052408;28;20135;-63
2022/12/15 06:45:59;;;;;;;16.77;12.95;;;;;;;;;;5049890;28;20076;-62
2022/12/15 06:48:26;;;;;;;21.30;15.68;;;;;;;;;;5037782;28;20056;-63
2022/12/15 06:50:53;;;;;;;20.10;13.90;;;;;;;;;;5051872;28;20132;-63
2022/12/15 06:53:20;;;;;;;16.33;13.70;;;;;;;;;;5037548;28;20076;-63
2022/12/15 06:55:46;;;;;;;19.20;13.07;;;;;;;;;;5051803;28;20500;-63
2022/12/15 06:58:13;;;;;;;18.17;13.30;;;;;;;;;;5032224;28;20107;-63
2022/12/15 07:00:41;;;;;;;17.40;13.90;;;;;;;;;;5032009;28;20059;-63
2022/12/15 07:03:08;;;;;;;;;;;;;;;;;;5049533;28;20140;-63
2022/12/15 07:05:34;;;;;;;19.98;14.43;;;;;;;;;;5051863;28;19924;-63
2022/12/15 07:08:00;;;;;;;27.73;17.42;;;;;;;;;;5051643;28;20136;-63
2022/12/15 07:10:27;;;;;;;23.83;15.90;;;;;;;;;;5051661;28;20055;-63
2022/12/15 07:12:56;;;;;;;25.92;17.38;;;;;;;;;;5051706;28;20120;-63
2022/12/15 07:15:23;;;;;;;27.33;17.23;;;;;;;;;;5051596;28;20088;-63
2022/12/15 07:17:50;;;;;;;23.23;15.70;;;;;;;;;;5052059;28;20143;-63
2022/12/15 07:20:16;;;;;;;23.92;15.32;;;;;;;;;;5051824;28;20124;-63
2022/12/15 07:22:42;;;;;;;22.80;15.40;;;;;;;;;;5051513;28;20052;-63
2022/12/15 07:25:09;;;;;;;21.70;14.80;;;;;;;;;;5051521;28;20079;-63
2022/12/15 07:27:35;;;;;;;23.38;14.50;;;;;;;;;;5044203;28;20129;-63
2022/12/15 07:30:02;;;;;;;19.55;15.10;;;;;;;;;;5030483;28;20507;-63
2022/12/15 07:32:28;;;;;;;27.20;17.55;;;;;;;;;;5030558;28;20084;-63
2022/12/15 07:34:55;;;;;;;26.08;18.45;;;;;;;;;;5031270;28;20132;-63
2022/12/15 07:37:21;;;;;;;28.30;19.98;;;;;;;;;;5035504;28;20080;-63
2022/12/15 07:39:47;;;;;;;25.00;18.27;;;;;;;;;;5051130;28;20077;-62
2022/12/15 07:42:14;;;;;;;17.80;13.02;;;;;;;;;;5034620;28;20090;-63
2022/12/15 07:44:40;;;;;;;18.35;13.73;;;;;;;;;;5036819;28;20085;-63
2022/12/15 07:47:07;;;;;;;22.45;15.20;;;;;;;;;;5039111;28;20437;-63
2022/12/15 07:49:33;;;;;;;21.70;16.10;;;;;;;;;;5041497;28;20057;-62
2022/12/15 07:51:59;;;;;;;20.60;16.15;;;;;;;;;;5046909;28;20046;-62
2022/12/15 07:54:26;;;;;;;25.92;16.35;;;;;;;;;;5038787;28;20132;-63
2022/12/15 07:56:52;;;;;;;24.50;17.10;;;;;;;;;;5050739;28;20052;-63
2022/12/15 07:59:19;;;;;;;24.40;17.30;;;;;;;;;;5055415;28;20055;-63
2022/12/15 08:01:45;;;;;;;23.20;16.30;;;;;;;;;;5055209;28;20053;-62
2022/12/15 08:04:12;;;;;;;25.48;16.63;;;;;;;;;;5055318;28;20095;-63
2022/12/15 08:06:38;;;;;;;27.02;16.45;;;;;;;;;;5055088;28;20059;-63
2022/12/15 08:09:04;;;;;;;22.15;15.85;;;;;;;;;;5054793;28;20053;-62
2022/12/15 08:11:33;;;;;;;24.48;16.17;;;;;;;;;;5054798;28;20044;-62
2022/12/15 08:13:59;;;;;;;21.95;15.05;;;;;;;;;;5054833;28;20099;-63
2022/12/15 08:16:29;;;;;;;21.95;16.00;;;;;;;;;;5055053;28;20052;-63
2022/12/15 08:18:56;;;;;;;20.60;14.90;;;;;;;;;;5054912;28;20096;-63
2022/12/15 08:21:22;;;;;;;19.15;14.48;;;;;;;;;;5055049;28;20049;-62
2022/12/15 08:23:49;;;;;;;23.08;16.27;;;;;;;;;;5054758;28;20041;-62
2022/12/15 08:26:17;;;;;;;24.45;16.20;;;;;;;;;;5054750;28;20063;-63
2022/12/15 08:28:44;;;;;;;22.40;15.43;;;;;;;;;;5054897;28;20115;-63
2022/12/15 08:31:15;;;;;;;19.48;14.93;;;;;;;;;;5054556;28;20045;-62
2022/12/15 08:33:42;;;;;;;19.85;15.88;;;;;;;;;;5054543;28;20060;-62
2022/12/15 08:36:10;;;;;;;20.75;17.60;;;;;;;;;;5054867;28;20056;-63
2022/12/15 08:38:40;;;;;;;25.05;18.27;;;;;;;;;;5054651;28;20064;-62
2022/12/15 08:41:11;;;;;;;23.00;16.88;;;;;;;;;;5054402;28;20522;-63
2022/12/15 08:43:38;;;;;;;22.38;16.33;;;;;;;;;;5054387;28;20144;-62
2022/12/15 08:46:13;;;;;;;22.13;15.60;;;;;;;;;;5054713;28;20408;-63
2022/12/15 08:48:40;;;;;;;23.17;16.08;;;;;;;;;;5054268;28;20064;-63
2022/12/15 08:51:07;;;;;;;23.48;14.85;;;;;;;;;;5054252;28;20049;-63
2022/12/15 08:53:33;;;;;;;21.75;15.88;;;;;;;;;;5054104;28;20579;-63
2022/12/15 08:56:03;;;;;;;23.00;15.63;;;;;;;;;;5054425;28;20045;-63
2022/12/15 08:58:29;;;;;;;20.35;13.43;;;;;;;;;;5054293;28;20052;-62
2022/12/15 09:01:00;;;;;;;21.10;13.13;;;;;;;;;;5054072;28;20045;-63
2022/12/15 09:03:26;;;;;;;16.98;12.40;;;;;;;;;;5053198;28;20136;-63
2022/12/15 09:05:53;;;;;;;16.52;11.82;;;;;;;;;;5054191;28;20441;-63
2022/12/15 09:08:19;;;;;;;16.50;12.55;;;;;;;;;;5054266;28;20053;-63
2022/12/15 09:10:46;;;;;;;17.90;13.50;;;;;;;;;;5053789;28;20484;-63
2022/12/15 09:13:17;;;;;;;18.67;14.27;;;;;;;;;;5054035;28;20045;-63
2022/12/15 09:15:44;;;;;;;15.63;11.77;;;;;;;;;;5053845;28;20041;-63
2022/12/15 09:18:31;;;;;;;15.83;11.67;;;;;;;;;;5054058;28;20056;-63
2022/12/15 09:21:02;;;;;;;14.60;11.15;;;;;;;;;;5053619;28;20416;-63
2022/12/15 09:23:28;;;;;;;15.70;11.43;;;;;;;;;;5053593;28;20049;-63
2022/12/15 09:26:02;;;;;;;17.23;13.90;;;;;;;;;;5053771;28;20049;-64
2022/12/15 09:28:28;;;;;;;21.70;16.80;;;;;;;;;;5053787;28;20389;-63
2022/12/15 09:31:09;;;;;;;18.73;15.27;;;;;;;;;;5053727;28;20078;-64
2022/12/15 09:33:36;;;;;;;19.88;15.93;;;;;;;;;;5053932;28;20451;-64
2022/12/15 09:36:03;;;;;;;17.00;13.68;;;;;;;;;;5053692;28;20059;-64
2022/12/15 09:38:30;;;;;;;16.02;13.07;;;;;;;;;;5053719;28;20041;-64
2022/12/15 09:40:56;;;;;;;15.45;13.93;;;;;;;;;;5053411;28;20040;-64
2022/12/15 09:43:25;;;;;;;18.67;15.68;;;;;;;;;;5053529;28;20053;-64
2022/12/15 09:46:33;;;;;;;21.33;17.02;;;;;;;;;;5053486;28;20408;-65
2022/12/15 09:49:02;;;;;;;23.38;18.02;;;;;;;;;;5053185;28;20045;-65
2022/12/15 09:51:31;;;;;;;20.50;17.60;;;;;;;;;;5053327;28;20041;-65
2022/12/15 09:53:58;;;;;;;22.50;19.30;;;;;;;;;;5053249;28;20045;-65
2022/12/15 09:56:32;;;;;;;24.08;20.20;;;;;;;;;;5053317;28;20053;-65
2022/12/15 09:59:02;;;;;;;19.90;17.33;;;;;;;;;;5052956;28;20465;-65
2022/12/15 10:01:37;;;;;;;20.40;18.27;;;;;;;;;;5053279;28;20049;-65
2022/12/15 10:04:09;;;;;;;20.23;18.08;;;;;;;;;;5052937;28;20102;-66
2022/12/15 10:06:49;;;;;;;18.60;16.45;;;;;;;;;;5053057;28;20136;-66
2022/12/15 10:09:17;;;;;;;16.63;14.95;;;;;;;;;;5053060;28;20049;-65
2022/12/15 10:11:43;;;;;;;19.92;17.80;;;;;;;;;;5052646;28;20421;-65
2022/12/15 10:14:15;;;;;;;18.63;16.70;;;;;;;;;;5051851;28;20045;-65
2022/12/15 10:16:44;;;;;;;18.55;16.65;;;;;;;;;;5052912;28;20049;-65
2022/12/15 10:19:18;;;;;;;19.15;17.05;;;;;;;;;;5052731;28;20390;-65
2022/12/15 10:21:46;;;;;;;18.13;16.15;;;;;;;;;;5052651;28;20076;-65
2022/12/15 10:24:17;;;;;;;19.17;16.23;;;;;;;;;;5052522;28;20064;-65
2022/12/15 10:27:20;;;;;;;19.30;17.35;;;;;;;;;;5052357;28;20061;-65
2022/12/15 10:30:01;;;;;;;15.40;13.80;;;;;;;;;;5052572;28;20060;-65
2022/12/15 10:32:27;;;;;;;14.70;13.20;;;;;;;;;;5052397;28;20053;-65
2022/12/15 10:34:54;;;;;;;15.10;13.60;;;;;;;;;;5052552;28;20053;-65
2022/12/15 10:37:20;;;;;;;16.17;13.13;;;;;;;;;;5052270;28;20049;-66
2022/12/15 10:39:48;;;;;;;12.45;11.13;;;;;;;;;;5052536;28;20045;-65
2022/12/15 10:42:17;;;;;;;14.13;11.45;;;;;;;;;;5052074;28;20060;-63
2022/12/15 10:44:44;;;;;;;12.55;10.77;;;;;;;;;;5052267;28;20518;-63
2022/12/15 10:47:18;;;;;;;10.88;9.77;;;;;;;;;;5052510;28;20075;-63
2022/12/15 10:49:45;;;;;;;10.57;9.48;;;;;;;;;;5051982;28;20055;-66
2022/12/15 10:52:32;;;;;;;10.23;9.23;;;;;;;;;;5051877;28;20080;-66
2022/12/15 10:54:59;;;;;;;9.35;8.45;;;;;;;;;;5051903;28;20049;-66
2022/12/15 10:57:26;;;;;;;9.73;8.27;;;;;;;;;;5051875;28;20047;-65
2022/12/15 10:59:54;;;;;;;10.50;8.45;;;;;;;;;;5052025;28;20045;-65
2022/12/15 11:02:20;;;;;;;9.95;8.23;;;;;;;;;;5052038;28;20053;-63
2022/12/15 11:05:15;;;;;;;8.50;7.57;;;;;;;;;;5051994;28;20057;-66
2022/12/15 11:07:42;;;;;;;8.88;6.63;;;;;;;;;;5051882;28;20049;-66
2022/12/15 11:10:27;;;;;;;7.82;6.72;;;;;;;;;;5051712;28;20056;-66
2022/12/15 11:12:56;;;;;;;6.93;6.22;;;;;;;;;;5051697;28;20500;-66
2022/12/15 11:15:30;;;;;;;9.30;7.35;;;;;;;;;;5051978;28;20055;-63
2022/12/15 11:18:14;;;;;;;7.75;6.57;;;;;;;;;;5051814;28;20048;-66
2022/12/15 11:20:44;;;;;;;10.60;8.25;;;;;;;;;;5051590;28;20055;-63
2022/12/15 11:23:13;;;;;;;7.40;5.82;;;;;;;;;;5051963;28;20057;-63
2022/12/15 11:25:50;;;;;;;10.30;8.38;;;;;;;;;;5050971;28;20049;-63
2022/12/15 11:28:21;;;;;;;7.87;5.57;;;;;;;;;;5051499;28;20526;-63
2022/12/15 11:31:04;;;;;;;5.53;4.85;;;;;;;;;;5051636;28;20075;-63
2022/12/15 11:33:31;;;;;;;6.50;4.93;;;;;;;;;;5051649;28;20052;-66
2022/12/15 11:36:09;;;;;;;6.20;5.60;;;;;;;;;;5051702;28;20049;-63
2022/12/15 11:38:44;;;;;;;6.60;5.07;;;;;;;;;;5051422;28;20045;-66
2022/12/15 11:41:29;;;;;;;9.35;4.55;;;;;;;;;;5051668;28;20056;-64
2022/12/15 11:44:09;;;;;;;6.25;5.10;;;;;;;;;;5051372;28;20152;-63
2022/12/15 11:46:42;;;;;;;6.63;4.47;;;;;;;;;;5051609;28;20064;-66
2022/12/15 11:49:26;;;;;;;7.30;5.45;;;;;;;;;;5051293;28;20481;-66
2022/12/15 11:51:58;;;;;;;6.30;5.45;;;;;;;;;;5051405;28;20072;-66
2022/12/15 11:54:37;;;;;;;7.13;5.93;;;;;;;;;;5051223;28;20064;-66
2022/12/15 11:57:16;;;;;;;8.38;5.95;;;;;;;;;;5050186;28;20044;-63
2022/12/15 11:59:49;;;;;;;7.97;6.05;;;;;;;;;;5044233;28;20047;-66
2022/12/15 12:02:15;;;;;;;7.57;5.65;;;;;;;;;;5046588;28;20057;-66
2022/12/15 12:04:51;;;;;;;7.82;6.18;;;;;;;;;;5049877;28;20049;-66
2022/12/15 12:07:23;;;;;;;6.45;5.85;;;;;;;;;;5051325;28;20063;-66
2022/12/15 12:10:05;;;;;;;7.28;5.97;;;;;;;;;;5051303;28;20492;-66
2022/12/15 12:12:45;;;;;;;7.50;5.57;;;;;;;;;;5050189;28;20051;-63
2022/12/15 12:15:25;;;;;;;6.93;5.63;;;;;;;;;;5051326;28;20049;-63
2022/12/15 12:17:52;;;;;;;7.93;6.05;;;;;;;;;;5051192;28;20045;-63
2022/12/15 12:20:39;;;;;;;7.53;5.75;;;;;;;;;;5051355;28;20057;-63
2022/12/15 12:23:14;;;;;;;7.07;5.82;;;;;;;;;;5050299;28;20053;-64
2022/12/15 12:25:52;;;;;;;7.32;5.35;;;;;;;;;;5050824;28;20053;-64
2022/12/15 12:28:28;;;;;;;6.85;5.00;;;;;;;;;;5051164;28;20045;-66
2022/12/15 12:30:58;;;;;;;6.20;5.30;;;;;;;;;;5051121;28;20049;-66
2022/12/15 12:33:32;;;;;;;7.30;5.35;;;;;;;;;;5050799;28;20467;-66
2022/12/15 12:36:03;;;;;;;6.90;4.97;;;;;;;;;;5050892;28;20052;-64
2022/12/15 12:38:35;;;;;;;5.32;4.65;;;;;;;;;;5053698;28;20084;-65
2022/12/15 12:41:07;;;;;;;8.70;6.43;;;;;;;;;;5054793;28;20041;-65
2022/12/15 12:43:41;;;;;;;13.30;8.98;;;;;;;;;;5054593;28;20081;-66
2022/12/15 12:46:10;;;;;;;24.27;14.68;;;;;;;;;;5054725;28;20570;-65
2022/12/15 12:48:55;;;;;;;20.33;11.63;;;;;;;;;;5054559;28;20049;-64
2022/12/15 12:51:38;;;;;;;28.05;17.48;;;;;;;;;;5054483;28;20055;-63
2022/12/15 12:54:25;;;;;;;24.80;15.13;;;;;;;;;;5054241;28;20041;-64
2022/12/15 12:56:51;;;;;;;5.82;5.20;;;;;;;;;;5053485;28;20481;-63
2022/12/15 12:59:30;;;;;;;11.40;7.88;;;;;;;;;;5054168;28;20044;-63
2022/12/15 13:02:19;;;;;;;12.48;7.40;;;;;;;;;;5053995;28;20052;-65
2022/12/15 13:04:50;;;;;;;9.15;6.95;;;;;;;;;;5053498;28;20057;-63
2022/12/15 13:07:28;;;;;;;8.05;6.10;;;;;;;;;;5053926;28;20056;-66
2022/12/15 13:10:03;;;;;;;8.77;6.45;;;;;;;;;;5054138;28;20079;-65
2022/12/15 13:12:35;;;;;;;8.93;6.88;;;;;;;;;;5054096;28;20049;-65
2022/12/15 13:15:30;;;;;;;8.60;7.63;;;;;;;;;;5053955;28;20079;-65
2022/12/15 13:18:05;;;;;;;6.60;6.00;;;;;;;;;;5053947;28;20045;-63
2022/12/15 13:20:32;;;;;;;9.55;7.10;;;;;;;;;;5053679;28;20485;-64
2022/12/15 13:22:59;;;;;;;;;;;;;;;;;;5054356;28;20048;-64
2022/12/15 13:25:31;;;;;;;6.00;5.38;;;;;;;;;;5053989;28;19921;-63
2022/12/15 13:27:59;;;;;;;9.40;6.75;;;;;;;;;;5053453;28;20417;-63
2022/12/15 13:30:26;;;;;;;7.68;5.60;;;;;;;;;;5054033;28;20055;-63
2022/12/15 13:32:53;;;;;;;10.37;7.20;;;;;;;;;;5053681;28;20053;-63
2022/12/15 13:35:30;;;;;;;10.45;8.07;;;;;;;;;;5053618;28;20041;-64
2022/12/15 13:38:15;;;;;;;12.25;6.50;;;;;;;;;;5053599;28;20049;-63
2022/12/15 13:40:52;;;;;;;7.70;6.90;;;;;;;;;;5053327;28;20048;-63
2022/12/15 13:43:19;;;;;;;;;;;;;;;;;;5053898;28;20063;-64
2022/12/15 13:45:48;;;;;;;9.20;7.40;;;;;;;;;;5053492;28;19924;-63
2022/12/15 13:48:33;;;;;;;9.15;8.25;;;;;;;;;;5053132;28;20098;-63
2022/12/15 13:51:02;;;;;;;15.88;14.27;;;;;;;;;;5053139;28;20076;-63
2022/12/15 13:53:31;;;;;;;10.15;7.20;;;;;;;;;;5053126;28;20576;-65
2022/12/15 13:56:02;;;;;;;23.23;14.05;;;;;;;;;;5053044;28;20041;-66
2022/12/15 13:58:30;;;;;;;12.23;7.95;;;;;;;;;;5053188;28;20044;-66
2022/12/15 14:00:59;;;;;;;8.00;5.80;;;;;;;;;;5052859;28;20499;-66
2022/12/15 14:03:26;;;;;;;6.55;5.35;;;;;;;;;;5053131;28;20053;-66
2022/12/15 14:05:54;;;;;;;10.37;8.60;;;;;;;;;;5053069;28;20203;-65
2022/12/15 14:08:20;;;;;;;;;;;;;;;;;;5053585;28;20053;-66
2022/12/15 14:10:49;;;;;;;9.10;6.57;;;;;;;;;;5052839;28;20405;-65
2022/12/15 14:13:16;;;;;;;7.18;6.20;;;;;;;;;;5052999;28;20408;-65
2022/12/15 14:15:44;;;;;;;12.25;7.13;;;;;;;;;;5052927;28;20052;-64
2022/12/15 14:18:29;;;;;;;12.30;6.47;;;;;;;;;;5052754;28;20052;-63
2022/12/15 14:20:56;;;;;;;8.38;5.13;;;;;;;;;;5052695;28;20053;-63
2022/12/15 14:23:28;;;;;;;8.07;5.60;;;;;;;;;;5052447;28;20052;-63
2022/12/15 14:26:03;;;;;;;6.78;5.60;;;;;;;;;;5052347;28;20512;-63
2022/12/15 14:28:35;;;;;;;7.93;4.85;;;;;;;;;;5052330;28;20045;-63
2022/12/15 14:31:03;;;;;;;10.25;5.55;;;;;;;;;;5052550;28;20056;-63
2022/12/15 14:33:31;;;;;;;6.85;4.13;;;;;;;;;;5048880;28;20046;-63
2022/12/15 14:35:59;;;;;;;12.52;4.80;;;;;;;;;;5042507;28;20514;-63
2022/12/15 14:38:40;;;;;;;9.30;5.00;;;;;;;;;;5052306;28;20052;-64
2022/12/15 14:41:12;;;;;;;27.70;9.55;;;;;;;;;;5052187;28;20043;-63
2022/12/15 14:43:39;;;;;;;8.68;4.88;;;;;;;;;;5052440;28;20059;-63
2022/12/15 14:46:07;;;;;;;10.27;7.15;;;;;;;;;;5052279;28;20055;-66
2022/12/15 14:48:36;;;;;;;12.50;6.97;;;;;;;;;;5052094;28;20068;-63
2022/12/15 14:51:20;;;;;;;7.75;4.72;;;;;;;;;;5052028;28;20063;-63
2022/12/15 14:53:48;;;;;;;7.85;5.00;;;;;;;;;;5051838;28;20049;-63
2022/12/15 14:56:21;;;;;;;7.10;4.18;;;;;;;;;;5052328;28;20451;-66
2022/12/15 14:58:58;;;;;;;7.43;4.28;;;;;;;;;;5052055;28;20049;-66
2022/12/15 15:01:28;;;;;;;5.95;4.72;;;;;;;;;;5051655;28;20060;-66
2022/12/15 15:03:56;;;;;;;6.53;4.53;;;;;;;;;;5051861;28;20056;-66
2022/12/15 15:06:26;;;;;;;12.32;6.80;;;;;;;;;;5051802;28;20060;-65
2022/12/15 15:08:53;;;;;;;10.98;6.60;;;;;;;;;;5051963;28;20059;-65
2022/12/15 15:11:22;;;;;;;15.20;8.60;;;;;;;;;;5052075;28;20049;-65
2022/12/15 15:13:52;;;;;;;16.02;9.10;;;;;;;;;;5051722;28;20416;-65
2022/12/15 15:16:21;;;;;;;17.60;9.00;;;;;;;;;;5051932;28;20083;-65
2022/12/15 15:18:48;;;;;;;20.60;10.52;;;;;;;;;;5051951;28;20091;-65
2022/12/15 15:21:17;;;;;;;18.00;9.23;;;;;;;;;;5051807;28;20044;-65
2022/12/15 15:23:56;;;;;;;17.58;10.93;;;;;;;;;;5051887;28;20056;-65
2022/12/15 15:26:24;;;;;;;38.60;20.60;;;;;;;;;;5051496;28;20065;-65
2022/12/15 15:28:50;;;;;;;;;;;;;;;;;;5052042;28;20507;-65
2022/12/15 15:31:37;;;;;;;20.80;11.52;;;;;;;;;;5051568;28;20398;-65
2022/12/15 15:34:07;;;;;;;14.90;9.77;;;;;;;;;;5051618;28;20448;-65
2022/12/15 15:36:35;;;;;;;16.17;10.23;;;;;;;;;;5051746;28;20045;-65
2022/12/15 15:39:02;;;;;;;16.23;10.75;;;;;;;;;;5051479;28;20064;-64
2022/12/15 15:41:30;;;;;;;9.48;7.10;;;;;;;;;;5051414;28;20412;-64
2022/12/15 15:43:58;;;;;;;9.00;5.90;;;;;;;;;;5051333;28;20051;-64
2022/12/15 15:46:28;;;;;;;10.13;6.00;;;;;;;;;;5051565;28;20057;-64
2022/12/15 15:48:57;;;;;;;8.55;6.72;;;;;;;;;;5051607;28;20377;-65
2022/12/15 15:51:24;;;;;;;12.18;7.25;;;;;;;;;;5051603;28;20057;-65
2022/12/15 15:53:51;;;;;;;10.23;6.82;;;;;;;;;;5050971;28;20047;-65
2022/12/15 15:56:18;;;;;;;10.73;6.87;;;;;;;;;;5051510;28;20052;-65
2022/12/15 15:58:45;;;;;;;12.50;7.40;;;;;;;;;;5051156;28;20063;-65
2022/12/15 16:01:12;;;;;;;11.30;6.95;;;;;;;;;;5051454;28;20123;-65
2022/12/15 16:03:39;;;;;;;14.15;8.00;;;;;;;;;;5051475;28;20067;-64
2022/12/15 16:06:10;;;;;;;11.65;7.60;;;;;;;;;;5051196;28;20118;-65
2022/12/15 16:08:36;;;;;;;12.70;7.07;;;;;;;;;;5051506;28;20055;-65
2022/12/15 16:11:02;;;;;;;10.02;7.25;;;;;;;;;;5051644;28;20055;-65
2022/12/15 16:13:29;;;;;;;12.00;6.80;;;;;;;;;;5055094;28;20098;-65
2022/12/15 16:15:55;;;;;;;11.88;6.65;;;;;;;;;;5055219;28;20056;-65
2022/12/15 16:18:22;;;;;;;9.68;6.85;;;;;;;;;;5054932;28;20131;-64
2022/12/15 16:20:49;;;;;;;12.27;7.90;;;;;;;;;;5054939;28;20453;-64
2022/12/15 16:23:17;;;;;;;17.10;9.90;;;;;;;;;;5054770;28;20053;-64
2022/12/15 16:25:51;;;;;;;15.23;10.15;;;;;;;;;;5054967;28;20053;-65
2022/12/15 16:28:22;;;;;;;17.33;8.95;;;;;;;;;;5054793;28;20139;-65
2022/12/15 16:30:49;;;;;;;10.27;8.50;;;;;;;;;;5054861;28;20049;-65
2022/12/15 16:33:16;;;;;;;12.63;8.13;;;;;;;;;;5054505;28;20484;-64
2022/12/15 16:35:43;;;;;;;12.55;7.47;;;;;;;;;;5054604;28;20048;-64
2022/12/15 16:38:13;;;;;;;18.40;8.65;;;;;;;;;;5054784;28;20053;-65
2022/12/15 16:40:39;;;;;;;12.48;8.73;;;;;;;;;;5054515;28;20048;-64
2022/12/15 16:43:12;;;;;;;14.00;9.30;;;;;;;;;;5054727;28;20072;-64
2022/12/15 16:45:41;;;;;;;12.90;9.60;;;;;;;;;;5054792;28;20400;-64
2022/12/15 16:48:07;;;;;;;11.82;7.90;;;;;;;;;;5054328;28;20045;-64
2022/12/15 16:50:35;;;;;;;10.60;7.63;;;;;;;;;;5054275;28;20128;-65
2022/12/15 16:53:03;;;;;;;11.55;7.68;;;;;;;;;;5054407;28;20400;-64
2022/12/15 16:55:30;;;;;;;9.90;7.68;;;;;;;;;;5040279;28;20041;-64
2022/12/15 16:58:04;;;;;;;12.85;8.50;;;;;;;;;;5054787;28;20045;-65